createdAt,value
2019-05-02T00:00:40.092Z,35.83
2019-05-02T00:03:08.360Z,44.83
2019-05-02T00:05:36.712Z,39.20
2019-05-02T00:08:04.904Z,38.33
2019-05-02T00:10:34.583Z,36.70
2019-05-02T00:13:03.107Z,40.23
2019-05-02T00:15:33.120Z,40.90
2019-05-02T00:18:02.610Z,42.50
2019-05-02T00:20:31.067Z,41.37
2019-05-02T00:22:59.384Z,33.03
2019-05-02T00:25:27.756Z,39.47
2019-05-02T00:27:56.352Z,40.67
2019-05-02T00:30:24.969Z,40.50
2019-05-02T00:32:58.152Z,44.80
2019-05-02T00:35:23.396Z,38.27
2019-05-02T00:37:52.741Z,37.53
2019-05-02T00:40:25.846Z,41.07
2019-05-02T00:42:53.245Z,39.77
2019-05-02T00:45:23.963Z,42.13
2019-05-02T00:47:52.980Z,43.90
2019-05-02T00:50:22.568Z,50.87
2019-05-02T00:52:50.980Z,37.20
2019-05-02T00:55:19.323Z,47.23
2019-05-02T00:57:50.896Z,35.90
2019-05-02T01:00:18.519Z,43.70
2019-05-02T01:02:49.295Z,40.00
2019-05-02T01:05:17.744Z,35.67
2019-05-02T01:07:46.002Z,38.67
2019-05-02T01:10:17.363Z,36.43
2019-05-02T01:12:46.083Z,43.33
2019-05-02T01:15:14.566Z,40.73
2019-05-02T01:17:42.903Z,40.33
2019-05-02T01:20:11.429Z,39.00
2019-05-02T01:22:39.906Z,39.23
2019-05-02T01:25:14.949Z,38.00
2019-05-02T01:27:41.236Z,41.27
2019-05-02T01:30:11.818Z,43.50
2019-05-02T01:32:41.670Z,30.97
2019-05-02T01:35:11.552Z,47.33
2019-05-02T01:37:41.512Z,41.33
2019-05-02T01:40:13.071Z,35.70
2019-05-02T01:42:44.537Z,35.90
2019-05-02T01:45:12.471Z,29.77
2019-05-02T01:47:40.883Z,34.17
2019-05-02T01:50:09.232Z,39.40
2019-05-02T01:52:37.865Z,40.60
2019-05-02T01:55:07.002Z,44.13
2019-05-02T01:57:35.344Z,35.23
2019-05-02T02:00:09.473Z,37.97
2019-05-02T02:02:35.424Z,48.97
2019-05-02T02:05:05.210Z,40.70
2019-05-02T02:07:33.682Z,50.63
2019-05-02T02:10:02.072Z,50.90
2019-05-02T02:12:30.440Z,56.07
2019-05-02T02:14:58.764Z,56.77
2019-05-02T02:17:27.139Z,183.03
2019-05-02T02:19:57.024Z,146.67
2019-05-02T02:22:26.883Z,75.80
2019-05-02T02:25:00.981Z,72.67
2019-05-02T02:27:27.387Z,360.60
2019-05-02T02:29:55.856Z,354.60
2019-05-02T02:32:27.113Z,363.33
2019-05-02T02:34:54.140Z,338.83
2019-05-02T02:37:22.402Z,354.90
2019-05-02T02:39:54.299Z,300.13
2019-05-02T02:42:25.134Z,131.13
2019-05-02T02:44:52.380Z,92.63
2019-05-02T02:47:21.200Z,84.03
2019-05-02T02:49:55.975Z,77.27
2019-05-02T02:52:19.726Z,95.83
2019-05-02T02:54:48.148Z,77.10
2019-05-02T02:57:26.040Z,91.97
2019-05-02T02:59:46.480Z,80.03
2019-05-02T03:02:14.840Z,94.63
2019-05-02T03:04:45.974Z,78.37
2019-05-02T03:07:24.152Z,85.53
2019-05-02T03:09:43.037Z,82.60
2019-05-02T03:12:13.028Z,86.67
2019-05-02T03:14:47.076Z,78.33
2019-05-02T03:17:12.906Z,110.30
2019-05-02T03:19:41.288Z,97.43
2019-05-02T03:22:10.052Z,93.37
2019-05-02T03:24:43.960Z,89.90
2019-05-02T03:27:08.427Z,390.77
2019-05-02T03:29:43.814Z,364.20
2019-05-02T03:32:25.963Z,426.00
2019-05-02T03:34:47.236Z,400.87
2019-05-02T03:37:10.522Z,380.77
2019-05-02T03:39:36.793Z,378.73
2019-05-02T03:42:05.274Z,393.03
2019-05-02T03:44:33.509Z,391.67
2019-05-02T03:47:04.685Z,376.33
2019-05-02T03:49:31.809Z,399.33
2019-05-02T03:52:02.617Z,403.83
2019-05-02T03:54:30.953Z,365.73
2019-05-02T03:56:59.224Z,355.77
2019-05-02T03:59:37.496Z,341.93
2019-05-02T04:01:58.498Z,282.03
2019-05-02T04:04:26.827Z,303.87
2019-05-02T04:07:00.960Z,301.53
2019-05-02T04:09:31.967Z,294.70
2019-05-02T04:11:56.706Z,279.00
2019-05-02T04:14:37.528Z,293.60
2019-05-02T04:16:57.314Z,285.43
2019-05-02T04:19:28.770Z,306.40
2019-05-02T04:22:01.609Z,128.87
2019-05-02T04:24:26.953Z,323.67
2019-05-02T04:26:56.326Z,310.13
2019-05-02T04:29:31.253Z,277.47
2019-05-02T04:31:54.746Z,272.83
2019-05-02T04:34:23.144Z,290.97
2019-05-02T04:36:59.797Z,276.87
2019-05-02T04:39:21.995Z,290.70
2019-05-02T04:41:50.792Z,280.40
2019-05-02T04:44:19.343Z,298.63
2019-05-02T04:46:48.827Z,207.43
2019-05-02T04:49:20.128Z,81.17
2019-05-02T04:51:59.415Z,76.43
2019-05-02T04:54:25.840Z,140.93
2019-05-02T04:56:49.719Z,275.73
2019-05-02T04:59:22.781Z,313.33
2019-05-02T05:01:54.349Z,284.87
2019-05-02T05:04:18.070Z,298.17
2019-05-02T05:06:55.018Z,278.43
2019-05-02T05:09:18.025Z,293.03
2019-05-02T05:11:48.204Z,273.10
2019-05-02T05:14:17.949Z,272.20
2019-05-02T05:16:51.738Z,296.67
2019-05-02T05:19:17.844Z,317.83
2019-05-02T05:21:47.675Z,284.93
2019-05-02T05:24:18.268Z,307.63
2019-05-02T05:26:48.068Z,292.17
2019-05-02T05:29:21.316Z,288.13
2019-05-02T05:31:48.277Z,228.07
2019-05-02T05:34:17.339Z,291.77
2019-05-02T05:36:48.165Z,184.80
2019-05-02T05:39:17.651Z,106.63
2019-05-02T05:41:48.347Z,74.83
2019-05-02T05:44:18.083Z,94.47
2019-05-02T05:46:48.886Z,72.00
2019-05-02T05:49:18.332Z,71.47
2019-05-02T05:51:47.710Z,106.47
2019-05-02T05:54:17.756Z,190.87
2019-05-02T05:56:45.763Z,278.37
2019-05-02T05:59:14.357Z,73.07
2019-05-02T06:01:43.134Z,282.17
2019-05-02T06:04:13.967Z,225.93
2019-05-02T06:06:41.345Z,51.43
2019-05-02T06:09:09.786Z,185.10
2019-05-02T06:11:38.170Z,194.57
2019-05-02T06:14:06.399Z,79.77
2019-05-02T06:16:35.392Z,66.90
2019-05-02T06:19:03.938Z,24.90
2019-05-02T06:21:32.292Z,17.90
2019-05-02T06:24:01.506Z,31.93
2019-05-02T06:26:29.952Z,21.83
2019-05-02T06:28:58.254Z,27.77
2019-05-02T06:31:26.625Z,25.97
2019-05-02T06:33:55.012Z,20.93
2019-05-02T06:36:23.240Z,22.33
2019-05-02T06:38:52.094Z,29.50
2019-05-02T06:41:22.317Z,23.20
2019-05-02T06:43:51.992Z,22.10
2019-05-02T06:46:21.746Z,24.77
2019-05-02T06:48:52.377Z,22.73
2019-05-02T06:51:21.173Z,18.03
2019-05-02T06:53:49.672Z,22.30
2019-05-02T06:56:18.065Z,21.00
2019-05-02T06:58:46.476Z,18.30
2019-05-02T07:01:16.319Z,22.43
2019-05-02T07:03:46.228Z,18.37
2019-05-02T07:06:15.092Z,21.33
2019-05-02T07:08:43.379Z,23.83
2019-05-02T07:11:11.665Z,20.97
2019-05-02T07:13:42.020Z,19.77
2019-05-02T07:16:16.077Z,18.47
2019-05-02T07:18:47.560Z,20.13
2019-05-02T07:21:17.346Z,33.87
2019-05-02T07:23:43.421Z,17.60
2019-05-02T07:26:15.584Z,21.37
2019-05-02T07:28:45.754Z,18.43
2019-05-02T07:31:13.756Z,18.47
2019-05-02T07:33:41.690Z,19.23
2019-05-02T07:36:09.997Z,19.67
2019-05-02T07:38:38.240Z,17.93
2019-05-02T07:41:07.687Z,18.87
2019-05-02T07:43:36.082Z,23.90
2019-05-02T07:46:04.512Z,14.27
2019-05-02T07:48:32.896Z,14.57
2019-05-02T07:51:01.189Z,21.03
2019-05-02T07:53:29.532Z,16.80
2019-05-02T07:55:58.024Z,15.27
2019-05-02T07:58:26.320Z,20.37
2019-05-02T08:00:54.684Z,15.90
2019-05-02T08:03:22.993Z,12.47
2019-05-02T08:05:54.359Z,14.37
2019-05-02T08:08:25.074Z,16.10
2019-05-02T08:10:53.815Z,22.73
2019-05-02T08:13:21.214Z,27.33
2019-05-02T08:15:50.736Z,17.57
2019-05-02T08:18:19.582Z,17.13
2019-05-02T08:20:51.100Z,95.27
2019-05-02T08:26:35.175Z,21.83
2019-05-02T08:32:20.956Z,19.17
2019-05-02T08:38:17.435Z,30.13
2019-05-02T08:43:58.787Z,19.13
2019-05-02T08:49:44.104Z,18.70
2019-05-02T08:52:12.472Z,19.10
2019-05-02T08:57:56.947Z,22.37
2019-05-02T09:03:55.162Z,15.75
2019-05-02T09:09:30.153Z,31.17
2019-05-02T09:15:14.284Z,20.93
2019-05-02T09:17:46.477Z,21.23
2019-05-02T09:20:16.657Z,21.73
2019-05-02T09:25:59.388Z,17.35
2019-05-02T09:31:46.051Z,17.63
2019-05-02T09:37:42.039Z,14.03
2019-05-02T09:43:29.369Z,11.53
2019-05-02T09:49:16.463Z,18.77
2019-05-02T09:55:02.888Z,17.12
2019-05-02T09:57:32.233Z,35.88
2019-05-02T10:03:17.507Z,26.48
2019-05-02T10:05:45.859Z,25.90
2019-05-02T10:11:22.497Z,16.42
2019-05-02T10:17:07.066Z,19.15
2019-05-02T10:19:35.190Z,17.67
2019-05-02T10:22:03.464Z,11.90
2019-05-02T10:24:32.311Z,20.62
2019-05-02T10:27:04.038Z,327.63
2019-05-02T10:29:32.899Z,20.68
2019-05-02T10:32:01.934Z,15.03
2019-05-02T10:34:30.213Z,18.37
2019-05-02T10:37:00.243Z,25.45
2019-05-02T10:39:33.185Z,15.25
2019-05-02T10:41:58.416Z,16.23
2019-05-02T10:44:27.217Z,18.87
2019-05-02T10:46:58.358Z,18.82
2019-05-02T10:49:28.404Z,18.65
2019-05-02T10:51:56.659Z,18.00
2019-05-02T10:54:27.896Z,22.65
2019-05-02T10:56:55.100Z,26.65
2019-05-02T10:59:23.432Z,19.85
2019-05-02T11:01:53.372Z,38.38
2019-05-02T11:04:24.105Z,14.70
2019-05-02T11:06:51.933Z,21.45
2019-05-02T11:09:22.507Z,15.85
2019-05-02T11:11:52.039Z,17.75
2019-05-02T11:14:22.523Z,18.37
2019-05-02T11:16:52.631Z,18.20
2019-05-02T11:19:22.621Z,19.20
2019-05-02T11:21:56.258Z,17.65
2019-05-02T11:24:22.483Z,26.07
2019-05-02T11:26:52.863Z,18.02
2019-05-02T11:29:22.803Z,18.12
2019-05-02T11:31:52.112Z,16.35
2019-05-02T11:34:22.036Z,22.32
2019-05-02T11:36:52.496Z,13.05
2019-05-02T11:39:31.499Z,20.68
2019-05-02T11:41:52.565Z,15.13
2019-05-02T11:44:22.455Z,21.23
2019-05-02T11:46:52.043Z,22.52
2019-05-02T11:49:22.747Z,18.15
2019-05-02T11:51:52.657Z,19.90
2019-05-02T11:54:22.709Z,28.10
2019-05-02T11:56:53.365Z,19.60
2019-05-02T11:59:27.648Z,14.40
2019-05-02T12:01:59.801Z,21.00
2019-05-02T12:04:22.512Z,13.70
2019-05-02T12:07:01.158Z,24.50
2019-05-02T12:09:22.342Z,26.30
2019-05-02T12:11:54.994Z,30.02
2019-05-02T12:14:22.871Z,30.02
2019-05-02T12:16:52.763Z,36.68
2019-05-02T12:19:22.874Z,27.25
2019-05-02T12:21:52.868Z,31.82
2019-05-02T12:24:22.128Z,20.50
2019-05-02T12:26:52.680Z,30.85
2019-05-02T12:29:23.212Z,20.70
2019-05-02T12:31:56.427Z,35.52
2019-05-02T12:34:23.165Z,23.12
2019-05-02T12:36:52.551Z,17.57
2019-05-02T12:39:22.174Z,22.87
2019-05-02T12:41:53.314Z,18.12
2019-05-02T12:44:22.361Z,18.17
2019-05-02T12:46:51.778Z,28.87
2019-05-02T12:49:26.967Z,29.23
2019-05-02T12:51:52.298Z,26.97
2019-05-02T12:54:21.941Z,20.80
2019-05-02T12:56:52.613Z,22.20
2019-05-02T12:59:22.365Z,16.87
2019-05-02T13:01:51.818Z,20.02
2019-05-02T13:04:20.286Z,18.12
2019-05-02T13:06:48.561Z,22.47
2019-05-02T13:09:16.900Z,15.03
2019-05-02T13:11:49.562Z,21.95
2019-05-02T13:14:19.999Z,10.90
2019-05-02T13:16:53.625Z,33.67
2019-05-02T13:19:19.496Z,20.60
2019-05-02T13:21:50.129Z,18.90
2019-05-02T13:24:23.777Z,11.30
2019-05-02T13:26:53.941Z,17.55
2019-05-02T13:29:22.488Z,13.97
2019-05-02T13:31:52.572Z,12.70
2019-05-02T13:34:22.451Z,18.42
2019-05-02T13:36:52.080Z,22.32
2019-05-02T13:39:22.241Z,13.80
2019-05-02T13:41:52.160Z,22.43
2019-05-02T13:44:22.404Z,21.87
2019-05-02T13:46:50.831Z,22.60
2019-05-02T13:49:19.361Z,26.60
2019-05-02T13:51:47.532Z,21.93
2019-05-02T13:54:15.951Z,39.53
2019-05-02T13:56:45.791Z,20.05
2019-05-02T13:59:14.230Z,23.47
2019-05-02T14:01:42.812Z,25.45
2019-05-02T14:04:14.739Z,25.95
2019-05-02T14:06:42.265Z,18.30
2019-05-02T14:09:17.013Z,20.23
2019-05-02T14:11:43.567Z,25.37
2019-05-02T14:14:11.984Z,20.03
2019-05-02T14:16:41.532Z,30.27
2019-05-02T14:19:12.457Z,21.90
2019-05-02T14:21:42.158Z,21.95
2019-05-02T14:24:11.828Z,27.13
2019-05-02T14:29:56.496Z,16.63
2019-05-02T14:35:42.622Z,25.17
2019-05-02T14:41:30.047Z,25.50
2019-05-02T14:47:19.572Z,24.83
2019-05-02T14:53:05.082Z,28.10
2019-05-02T14:58:52.610Z,27.93
2019-05-02T15:01:22.541Z,18.57
2019-05-02T15:03:50.291Z,21.57
2019-05-02T15:09:36.330Z,22.97
2019-05-02T15:15:23.133Z,19.73
2019-05-02T15:21:12.246Z,18.77
2019-05-02T15:23:39.172Z,37.17
2019-05-02T15:29:27.079Z,23.70
2019-05-02T15:35:12.835Z,20.10
2019-05-02T15:37:41.744Z,19.57
2019-05-02T15:43:39.408Z,20.50
2019-05-02T15:46:06.999Z,48.10
2019-05-02T15:51:28.432Z,22.03
2019-05-02T15:57:12.990Z,19.63
2019-05-02T15:59:46.172Z,27.00
2019-05-02T16:05:28.469Z,22.57
2019-05-02T16:08:05.443Z,16.80
2019-05-02T16:13:47.072Z,24.50
2019-05-02T16:19:30.152Z,28.87
2019-05-02T16:27:57.552Z,34.07
2019-05-02T16:33:39.288Z,18.53
2019-05-02T16:39:23.041Z,16.47
2019-05-02T16:45:09.182Z,14.10
2019-05-02T16:47:37.840Z,19.57
2019-05-02T16:50:07.645Z,17.10
2019-05-02T16:55:43.415Z,18.33
2019-05-02T17:01:27.511Z,21.27
2019-05-02T17:07:16.620Z,13.93
2019-05-02T17:13:00.888Z,17.57
2019-05-02T17:18:48.311Z,7.47
2019-05-02T17:24:32.273Z,5.83
2019-05-02T17:30:16.840Z,12.57
2019-05-02T17:36:02.254Z,11.90
2019-05-02T17:41:46.470Z,15.77
2019-05-02T17:47:35.801Z,9.27
2019-05-02T17:53:22.425Z,10.27
2019-05-02T17:55:52.563Z,19.40
2019-05-02T18:01:37.757Z,11.83
2019-05-02T18:07:36.146Z,12.73
2019-05-02T18:10:07.763Z,12.50
2019-05-02T18:15:39.271Z,13.00
2019-05-02T18:18:08.029Z,8.30
2019-05-02T18:23:57.280Z,10.77
2019-05-02T18:26:23.044Z,10.27
2019-05-02T18:32:07.642Z,8.87
2019-05-02T18:37:51.919Z,16.20
2019-05-02T18:40:27.786Z,11.23
2019-05-02T18:46:07.558Z,16.60
2019-05-02T18:48:36.631Z,24.83
2019-05-02T18:54:22.055Z,9.87
2019-05-02T19:00:06.788Z,13.53
2019-05-02T19:02:35.736Z,11.50
2019-05-02T19:08:29.119Z,16.80
2019-05-02T19:14:22.394Z,20.03
2019-05-02T19:16:48.451Z,17.00
2019-05-02T19:22:32.246Z,18.80
2019-05-02T19:25:01.914Z,14.10
2019-05-02T19:30:36.849Z,15.07
2019-05-02T19:36:24.333Z,16.30
2019-05-02T19:38:52.471Z,14.97
2019-05-02T19:44:36.999Z,16.87
2019-05-02T19:47:08.444Z,11.43
2019-05-02T19:53:00.902Z,11.93
2019-05-02T19:55:24.167Z,13.33
2019-05-02T20:01:06.735Z,14.77
2019-05-02T20:06:50.996Z,12.77
2019-05-02T20:12:42.434Z,18.83
2019-05-02T20:18:21.644Z,17.33
2019-05-02T20:24:09.234Z,16.67
2019-05-02T20:26:35.301Z,16.57
2019-05-02T20:29:03.800Z,19.60
2019-05-02T20:31:32.252Z,19.17
2019-05-02T20:34:02.499Z,17.37
2019-05-02T20:36:32.089Z,20.67
2019-05-02T20:42:16.927Z,12.20
2019-05-02T20:48:03.327Z,14.90
2019-05-02T20:53:50.147Z,12.93
2019-05-02T20:59:33.948Z,13.77
2019-05-02T21:02:02.905Z,12.40
2019-05-02T21:07:48.351Z,17.27
2019-05-02T21:13:44.544Z,22.97
2019-05-02T21:19:29.395Z,12.33
2019-05-02T21:21:59.312Z,15.30
2019-05-02T21:24:27.692Z,15.43
2019-05-02T21:26:56.073Z,17.73
2019-05-02T21:32:40.171Z,16.50
2019-05-02T21:35:08.624Z,14.23
2019-05-02T21:37:37.080Z,22.07
2019-05-02T21:43:22.144Z,19.20
2019-05-02T21:48:54.566Z,24.83
2019-05-02T21:54:39.945Z,15.83
2019-05-02T21:57:12.022Z,18.23
2019-05-02T22:02:56.479Z,19.67
2019-05-02T22:08:41.992Z,21.20
2019-05-02T22:14:26.943Z,19.87
2019-05-02T22:16:55.194Z,17.70
2019-05-02T22:19:23.528Z,24.43
2019-05-02T22:25:07.700Z,21.43
2019-05-02T22:27:36.165Z,17.67
2019-05-02T22:30:05.941Z,24.20
2019-05-02T22:35:38.784Z,20.13
2019-05-02T22:38:08.705Z,17.60
2019-05-02T22:43:52.191Z,18.53
2019-05-02T22:49:37.349Z,23.57
2019-05-02T22:52:05.638Z,21.23
2019-05-02T22:57:51.762Z,23.77
2019-05-02T23:03:36.682Z,21.13
2019-05-02T23:06:05.011Z,20.97
2019-05-02T23:12:02.881Z,20.10
2019-05-02T23:17:47.264Z,19.17
2019-05-02T23:32:35.607Z,9.70
2019-05-02T23:35:07.305Z,17.43
2019-05-02T23:40:52.654Z,26.20
2019-05-02T23:43:21.854Z,18.53
2019-05-02T23:45:51.663Z,24.27
2019-05-02T23:48:22.002Z,17.97
2019-05-02T23:50:51.670Z,19.37
2019-05-02T23:56:24.264Z,19.83
